KADM/ADM METAR and TAF weather

Enter ICAO airport designator
Station Type Date Time Source
KADM METAR 2018/04/27 00:55 UTC NOAA

KADM 270055Z AUTO 00000KT 10SM BKN110 18/11 A2997 RMK AO2 T01760109


Station Type Date Time Source
KADM Decoded METAR 2018/04/27 00:55 UTC NOAA

Ardmore, Ardmore Municipal Airport, OK, United States (KADM) 34-18-11N 097-01-10W
Apr 26, 2018 - 08:55 PM EDT / 2018.04.27 0055 UTC
Wind: Calm:0
Visibility: 10 mile(s):0
Sky conditions: mostly cloudy
Temperature: 63.7 F (17.6 C)
Dew Point: 51.6 F (10.9 C)
Relative Humidity: 64%
Pressure (altimeter): 29.97 in. Hg (1014 hPa)
ob: KADM 270055Z AUTO 00000KT 10SM BKN110 18/11 A2997 RMK AO2 T01760109
cycle: 1

Station Type Date Time Source
KADM TAF UTC NOAA

Error!


Example: see airport list